sensor_id;sensor_type;location;lat;lon;timestamp;pressure;altitude;pressure_sealevel;temperature;humidity
76052;BME280;64751;48.708;9.710;2023-04-06T00:01:27;97845.78;;;0.02;67.06
76052;BME280;64751;48.708;9.710;2023-04-06T00:03:55;97850.75;;;0.03;67.09
76052;BME280;64751;48.708;9.710;2023-04-06T00:06:22;97844.38;;;-0.01;67.37
76052;BME280;64751;48.708;9.710;2023-04-06T00:08:50;97838.19;;;0.00;67.45
76052;BME280;64751;48.708;9.710;2023-04-06T00:11:18;97840.97;;;-0.02;67.61
76052;BME280;64751;48.708;9.710;2023-04-06T00:13:47;97836.81;;;-0.03;67.27
76052;BME280;64751;48.708;9.710;2023-04-06T00:16:15;97835.41;;;-0.05;67.72
76052;BME280;64751;48.708;9.710;2023-04-06T00:18:43;97834.38;;;-0.04;67.47
76052;BME280;64751;48.708;9.710;2023-04-06T00:21:11;97837.78;;;-0.10;67.41
76052;BME280;64751;48.708;9.710;2023-04-06T00:23:39;97829.63;;;-0.14;67.73
76052;BME280;64751;48.708;9.710;2023-04-06T00:26:07;97827.03;;;-0.14;67.79
76052;BME280;64751;48.708;9.710;2023-04-06T00:28:37;97834.00;;;-0.08;67.36
76052;BME280;64751;48.708;9.710;2023-04-06T00:31:06;97838.00;;;-0.05;67.31
76052;BME280;64751;48.708;9.710;2023-04-06T00:33:33;97836.00;;;-0.10;67.37
76052;BME280;64751;48.708;9.710;2023-04-06T00:36:01;97821.63;;;-0.12;67.69
76052;BME280;64751;48.708;9.710;2023-04-06T00:38:29;97829.22;;;-0.11;67.46
76052;BME280;64751;48.708;9.710;2023-04-06T00:40:57;97829.22;;;-0.17;67.82
76052;BME280;64751;48.708;9.710;2023-04-06T00:43:25;97822.44;;;-0.18;68.21
76052;BME280;64751;48.708;9.710;2023-04-06T00:45:53;97818.25;;;-0.19;68.35
76052;BME280;64751;48.708;9.710;2023-04-06T00:48:23;97820.03;;;-0.20;68.17
76052;BME280;64751;48.708;9.710;2023-04-06T00:50:50;97815.84;;;-0.21;68.58
76052;BME280;64751;48.708;9.710;2023-04-06T00:53:18;97813.25;;;-0.21;67.77
76052;BME280;64751;48.708;9.710;2023-04-06T00:55:46;97818.03;;;-0.18;68.07
76052;BME280;64751;48.708;9.710;2023-04-06T00:58:13;97806.88;;;-0.18;67.98
76052;BME280;64751;48.708;9.710;2023-04-06T01:00:49;97815.84;;;-0.14;67.87
76052;BME280;64751;48.708;9.710;2023-04-06T01:03:23;97810.25;;;-0.18;67.24
76052;BME280;64751;48.708;9.710;2023-04-06T01:05:51;97811.66;;;-0.22;67.61
76052;BME280;64751;48.708;9.710;2023-04-06T01:08:26;97811.88;;;-0.30;67.45
76052;BME280;64751;48.708;9.710;2023-04-06T01:11:08;97807.28;;;-0.41;68.12
76052;BME280;64751;48.708;9.710;2023-04-06T01:13:36;97806.88;;;-0.44;68.58
76052;BME280;64751;48.708;9.710;2023-04-06T01:16:07;97809.09;;;-0.48;68.35
76052;BME280;64751;48.708;9.710;2023-04-06T01:18:57;97808.50;;;-0.50;68.80
76052;BME280;64751;48.708;9.710;2023-04-06T01:21:29;97806.88;;;-0.51;68.50
76052;BME280;64751;48.708;9.710;2023-04-06T01:24:13;97803.69;;;-0.53;68.74
76052;BME280;64751;48.708;9.710;2023-04-06T01:26:55;97799.50;;;-0.54;68.94
76052;BME280;64751;48.708;9.710;2023-04-06T01:29:23;97797.31;;;-0.57;69.24
76052;BME280;64751;48.708;9.710;2023-04-06T01:31:56;97798.88;;;-0.56;68.69
76052;BME280;64751;48.708;9.710;2023-04-06T01:34:24;97792.94;;;-0.56;68.53
76052;BME280;64751;48.708;9.710;2023-04-06T01:36:54;97795.69;;;-0.58;68.85
76052;BME280;64751;48.708;9.710;2023-04-06T01:39:30;97779.16;;;-0.57;68.73
76052;BME280;64751;48.708;9.710;2023-04-06T01:41:59;97787.75;;;-0.56;68.53
76052;BME280;64751;48.708;9.710;2023-04-06T01:44:27;97780.13;;;-0.58;68.67
76052;BME280;64751;48.708;9.710;2023-04-06T01:47:05;97775.16;;;-0.59;69.04
76052;BME280;64751;48.708;9.710;2023-04-06T01:49:33;97773.38;;;-0.59;68.87
76052;BME280;64751;48.708;9.710;2023-04-06T01:52:02;97780.13;;;-0.58;69.26
76052;BME280;64751;48.708;9.710;2023-04-06T01:54:31;97779.75;;;-0.55;69.52
76052;BME280;64751;48.708;9.710;2023-04-06T01:57:10;97772.19;;;-0.63;68.70
76052;BME280;64751;48.708;9.710;2023-04-06T01:59:44;97763.59;;;-0.70;68.03
76052;BME280;64751;48.708;9.710;2023-04-06T02:02:35;97766.78;;;-0.75;68.56
76052;BME280;64751;48.708;9.710;2023-04-06T02:05:08;97766.38;;;-0.78;68.63
76052;BME280;64751;48.708;9.710;2023-04-06T02:07:37;97771.97;;;-0.75;68.93
76052;BME280;64751;48.708;9.710;2023-04-06T02:10:11;97779.94;;;-0.69;69.09
76052;BME280;64751;48.708;9.710;2023-04-06T02:12:39;97773.38;;;-0.65;69.57
76052;BME280;64751;48.708;9.710;2023-04-06T02:15:10;97765.59;;;-0.65;68.94
76052;BME280;64751;48.708;9.710;2023-04-06T02:17:39;97765.59;;;-0.65;68.99
76052;BME280;64751;48.708;9.710;2023-04-06T02:20:07;97765.38;;;-0.64;69.15
76052;BME280;64751;48.708;9.710;2023-04-06T02:22:35;97766.59;;;-0.66;68.78
76052;BME280;64751;48.708;9.710;2023-04-06T02:25:04;97761.00;;;-0.70;69.04
76052;BME280;64751;48.708;9.710;2023-04-06T02:27:33;97774.16;;;-0.72;68.87
76052;BME280;64751;48.708;9.710;2023-04-06T02:30:00;97775.75;;;-0.77;69.04
76052;BME280;64751;48.708;9.710;2023-04-06T02:32:28;97769.78;;;-0.84;68.87
76052;BME280;64751;48.708;9.710;2023-04-06T02:34:56;97766.19;;;-0.83;68.78
76052;BME280;64751;48.708;9.710;2023-04-06T02:37:25;97766.59;;;-0.86;68.41
76052;BME280;64751;48.708;9.710;2023-04-06T02:39:52;97749.84;;;-0.97;68.82
76052;BME280;64751;48.708;9.710;2023-04-06T02:42:20;97761.59;;;-0.88;68.30
76052;BME280;64751;48.708;9.710;2023-04-06T02:44:52;97758.59;;;-0.91;68.29
76052;BME280;64751;48.708;9.710;2023-04-06T02:47:23;97765.38;;;-0.90;68.24
76052;BME280;64751;48.708;9.710;2023-04-06T02:49:51;97769.56;;;-0.96;67.58
76052;BME280;64751;48.708;9.710;2023-04-06T02:52:19;97760.19;;;-1.03;68.28
76052;BME280;64751;48.708;9.710;2023-04-06T02:54:47;97752.22;;;-1.02;68.35
76052;BME280;64751;48.708;9.710;2023-04-06T02:57:21;97761.38;;;-1.06;68.39
76052;BME280;64751;48.708;9.710;2023-04-06T02:59:49;97757.38;;;-1.08;69.06
76052;BME280;64751;48.708;9.710;2023-04-06T03:02:27;97754.00;;;-1.02;69.70
76052;BME280;64751;48.708;9.710;2023-04-06T03:05:04;97742.25;;;-1.05;69.01
76052;BME280;64751;48.708;9.710;2023-04-06T03:07:37;97747.84;;;-1.01;68.43
76052;BME280;64751;48.708;9.710;2023-04-06T03:10:06;97749.84;;;-1.03;68.94
76052;BME280;64751;48.708;9.710;2023-04-06T03:12:35;97755.41;;;-1.06;69.18
76052;BME280;64751;48.708;9.710;2023-04-06T03:15:23;97752.22;;;-1.08;69.43
76052;BME280;64751;48.708;9.710;2023-04-06T03:17:57;97752.59;;;-1.11;69.31
76052;BME280;64751;48.708;9.710;2023-04-06T03:20:33;97752.97;;;-1.14;69.51
76052;BME280;64751;48.708;9.710;2023-04-06T03:23:01;97751.00;;;-1.12;69.59
76052;BME280;64751;48.708;9.710;2023-04-06T03:25:33;97751.19;;;-1.14;69.45
76052;BME280;64751;48.708;9.710;2023-04-06T03:28:04;97753.38;;;-1.17;69.47
76052;BME280;64751;48.708;9.710;2023-04-06T03:30:35;97757.38;;;-1.21;69.06
76052;BME280;64751;48.708;9.710;2023-04-06T03:33:05;97765.53;;;-1.24;69.31
76052;BME280;64751;48.708;9.710;2023-04-06T03:35:40;97759.16;;;-1.28;69.29
76052;BME280;64751;48.708;9.710;2023-04-06T03:38:08;97764.94;;;-1.26;70.23
76052;BME280;64751;48.708;9.710;2023-04-06T03:40:35;97764.94;;;-1.26;69.79
76052;BME280;64751;48.708;9.710;2023-04-06T03:43:04;97760.72;;;-1.27;69.56
76052;BME280;64751;48.708;9.710;2023-04-06T03:45:34;97768.50;;;-1.27;69.30
76052;BME280;64751;48.708;9.710;2023-04-06T03:48:02;97763.31;;;-1.27;69.62
76052;BME280;64751;48.708;9.710;2023-04-06T03:50:34;97769.69;;;-1.30;69.66
76052;BME280;64751;48.708;9.710;2023-04-06T03:53:02;97772.69;;;-1.33;69.24
76052;BME280;64751;48.708;9.710;2023-04-06T03:55:29;97771.28;;;-1.35;69.14
76052;BME280;64751;48.708;9.710;2023-04-06T03:57:57;97774.06;;;-1.37;69.47
76052;BME280;64751;48.708;9.710;2023-04-06T04:00:25;97772.06;;;-1.41;68.68
76052;BME280;64751;48.708;9.710;2023-04-06T04:02:55;97775.81;;;-1.51;68.65
76052;BME280;64751;48.708;9.710;2023-04-06T04:05:23;97774.41;;;-1.53;69.44
76052;BME280;64751;48.708;9.710;2023-04-06T04:07:53;97773.22;;;-1.51;70.24
76052;BME280;64751;48.708;9.710;2023-04-06T04:10:25;97773.25;;;-1.44;70.05
76052;BME280;64751;48.708;9.710;2023-04-06T04:12:53;97775.84;;;-1.44;69.68
76052;BME280;64751;48.708;9.710;2023-04-06T04:15:20;97780.22;;;-1.44;69.98
76052;BME280;64751;48.708;9.710;2023-04-06T04:17:48;97787.16;;;-1.45;69.15
76052;BME280;64751;48.708;9.710;2023-04-06T04:20:16;97784.59;;;-1.45;69.21
76052;BME280;64751;48.708;9.710;2023-04-06T04:22:44;97789.38;;;-1.49;69.29
76052;BME280;64751;48.708;9.710;2023-04-06T04:25:13;97792.91;;;-1.56;69.72
76052;BME280;64751;48.708;9.710;2023-04-06T04:27:46;97789.91;;;-1.60;70.29
76052;BME280;64751;48.708;9.710;2023-04-06T04:30:14;97777.53;;;-1.71;69.68
76052;BME280;64751;48.708;9.710;2023-04-06T04:32:42;97787.91;;;-1.64;69.25
76052;BME280;64751;48.708;9.710;2023-04-06T04:35:10;97787.31;;;-1.66;70.00
76052;BME280;64751;48.708;9.710;2023-04-06T04:37:41;97785.50;;;-1.66;69.25
76052;BME280;64751;48.708;9.710;2023-04-06T04:40:11;97787.69;;;-1.69;68.83
76052;BME280;64751;48.708;9.710;2023-04-06T04:42:54;97792.66;;;-1.68;69.26
76052;BME280;64751;48.708;9.710;2023-04-06T04:45:30;97789.28;;;-1.68;69.96
76052;BME280;64751;48.708;9.710;2023-04-06T04:48:02;97791.44;;;-1.72;69.75
76052;BME280;64751;48.708;9.710;2023-04-06T04:50:38;97798.63;;;-1.74;69.10
76052;BME280;64751;48.708;9.710;2023-04-06T04:53:06;97795.22;;;-1.74;70.02
76052;BME280;64751;48.708;9.710;2023-04-06T04:55:34;97790.25;;;-1.76;69.55
76052;BME280;64751;48.708;9.710;2023-04-06T04:58:03;97800.81;;;-1.71;69.86
76052;BME280;64751;48.708;9.710;2023-04-06T05:00:51;97797.81;;;-1.74;69.65
76052;BME280;64751;48.708;9.710;2023-04-06T05:03:22;97798.63;;;-1.74;70.25
76052;BME280;64751;48.708;9.710;2023-04-06T05:05:57;97805.81;;;-1.69;69.34
76052;BME280;64751;48.708;9.710;2023-04-06T05:08:28;97808.19;;;-1.68;69.43
76052;BME280;64751;48.708;9.710;2023-04-06T05:10:56;97805.22;;;-1.65;69.37
76052;BME280;64751;48.708;9.710;2023-04-06T05:13:25;97803.41;;;-1.71;70.05
76052;BME280;64751;48.708;9.710;2023-04-06T05:15:54;97823.38;;;-1.58;70.18
76052;BME280;64751;48.708;9.710;2023-04-06T05:18:26;97815.22;;;-1.55;70.15
76052;BME280;64751;48.708;9.710;2023-04-06T05:20:54;97823.59;;;-1.53;70.51
76052;BME280;64751;48.708;9.710;2023-04-06T05:23:29;97822.22;;;-1.49;69.91
76052;BME280;64751;48.708;9.710;2023-04-06T05:25:58;97818.84;;;-1.43;69.95
76052;BME280;64751;48.708;9.710;2023-04-06T05:28:27;97821.88;;;-1.39;69.62
76052;BME280;64751;48.708;9.710;2023-04-06T05:30:55;97829.22;;;-1.36;70.25
76052;BME280;64751;48.708;9.710;2023-04-06T05:33:23;97827.66;;;-1.31;69.31
76052;BME280;64751;48.708;9.710;2023-04-06T05:36:05;97831.09;;;-1.17;69.86
76052;BME280;64751;48.708;9.710;2023-04-06T05:38:36;97826.19;;;-0.99;69.55
76052;BME280;64751;48.708;9.710;2023-04-06T05:41:13;97834.19;;;-0.75;68.83
76052;BME280;64751;48.708;9.710;2023-04-06T05:43:43;97837.41;;;-0.53;68.22
76052;BME280;64751;48.708;9.710;2023-04-06T05:46:12;97835.00;;;-0.28;67.98
76052;BME280;64751;48.708;9.710;2023-04-06T05:48:40;97843.19;;;-0.05;66.99
76052;BME280;64751;48.708;9.710;2023-04-06T05:51:08;97841.94;;;0.24;66.41
76052;BME280;64751;48.708;9.710;2023-04-06T05:53:45;97841.25;;;0.54;65.23
76052;BME280;64751;48.708;9.710;2023-04-06T05:56:13;97846.91;;;0.89;64.66
76052;BME280;64751;48.708;9.710;2023-04-06T05:58:42;97854.75;;;1.20;63.49
76052;BME280;64751;48.708;9.710;2023-04-06T06:01:13;97839.38;;;1.50;62.90
76052;BME280;64751;48.708;9.710;2023-04-06T06:03:44;97840.69;;;1.84;62.63
76052;BME280;64751;48.708;9.710;2023-04-06T06:06:12;97847.03;;;2.12;62.18
76052;BME280;64751;48.708;9.710;2023-04-06T06:08:58;97848.16;;;2.41;61.43
76052;BME280;64751;48.708;9.710;2023-04-06T06:11:28;97846.06;;;2.68;60.99
76052;BME280;64751;48.708;9.710;2023-04-06T06:13:57;97849.06;;;3.01;60.40
76052;BME280;64751;48.708;9.710;2023-04-06T06:16:25;97854.50;;;3.29;60.51
76052;BME280;64751;48.708;9.710;2023-04-06T06:18:53;97851.31;;;3.68;58.72
76052;BME280;64751;48.708;9.710;2023-04-06T06:21:21;97863.84;;;4.01;57.89
76052;BME280;64751;48.708;9.710;2023-04-06T06:23:49;97850.53;;;4.37;57.60
76052;BME280;64751;48.708;9.710;2023-04-06T06:26:20;97857.28;;;4.85;56.08
76052;BME280;64751;48.708;9.710;2023-04-06T06:28:49;97858.72;;;5.32;55.33
76052;BME280;64751;48.708;9.710;2023-04-06T06:31:18;97848.28;;;5.65;54.30
76052;BME280;64751;48.708;9.710;2023-04-06T06:33:46;97842.47;;;5.92;53.00
76052;BME280;64751;48.708;9.710;2023-04-06T06:36:17;97848.91;;;6.01;54.08
76052;BME280;64751;48.708;9.710;2023-04-06T06:38:45;97855.25;;;6.05;53.51
76052;BME280;64751;48.708;9.710;2023-04-06T06:41:16;97857.72;;;6.11;54.71
76052;BME280;64751;48.708;9.710;2023-04-06T06:43:43;97850.69;;;6.33;53.09
76052;BME280;64751;48.708;9.710;2023-04-06T06:46:12;97852.41;;;6.44;50.28
76052;BME280;64751;48.708;9.710;2023-04-06T06:48:42;97847.69;;;6.85;48.99
76052;BME280;64751;48.708;9.710;2023-04-06T06:51:09;97854.19;;;7.25;48.43
76052;BME280;64751;48.708;9.710;2023-04-06T06:53:40;97858.78;;;7.67;47.79
76052;BME280;64751;48.708;9.710;2023-04-06T06:56:08;97858.78;;;8.30;46.69
76052;BME280;64751;48.708;9.710;2023-04-06T06:58:35;97859.63;;;8.88;42.79
76052;BME280;64751;48.708;9.710;2023-04-06T07:01:03;97862.72;;;9.62;41.97
76052;BME280;64751;48.708;9.710;2023-04-06T07:03:32;97853.53;;;10.30;41.00
76052;BME280;64751;48.708;9.710;2023-04-06T07:06:01;97846.31;;;10.65;38.04
76052;BME280;64751;48.708;9.710;2023-04-06T07:08:28;97846.88;;;11.21;35.08
76052;BME280;64751;48.708;9.710;2023-04-06T07:10:56;97854.97;;;11.84;35.24
76052;BME280;64751;48.708;9.710;2023-04-06T07:13:24;97857.34;;;12.48;34.47
76052;BME280;64751;48.708;9.710;2023-04-06T07:15:55;97853.53;;;13.06;32.55
76052;BME280;64751;48.708;9.710;2023-04-06T07:18:23;97855.03;;;13.12;33.22
76052;BME280;64751;48.708;9.710;2023-04-06T07:20:51;97851.28;;;13.37;32.54
76052;BME280;64751;48.708;9.710;2023-04-06T07:23:20;97855.50;;;13.75;31.94
76052;BME280;64751;48.708;9.710;2023-04-06T07:25:48;97853.56;;;14.31;29.59
76052;BME280;64751;48.708;9.710;2023-04-06T07:28:17;97854.28;;;14.64;28.99
76052;BME280;64751;48.708;9.710;2023-04-06T07:30:44;97852.19;;;15.29;28.63
76052;BME280;64751;48.708;9.710;2023-04-06T07:33:12;97850.75;;;15.09;27.43
76052;BME280;64751;48.708;9.710;2023-04-06T07:35:41;97847.41;;;15.67;28.00
76052;BME280;64751;48.708;9.710;2023-04-06T07:38:10;97857.03;;;16.21;26.73
76052;BME280;64751;48.708;9.710;2023-04-06T07:40:41;97852.88;;;16.59;26.87
76052;BME280;64751;48.708;9.710;2023-04-06T07:43:09;97861.19;;;16.57;26.76
76052;BME280;64751;48.708;9.710;2023-04-06T07:45:36;97849.91;;;17.08;26.87
76052;BME280;64751;48.708;9.710;2023-04-06T07:48:04;97852.63;;;17.25;26.73
76052;BME280;64751;48.708;9.710;2023-04-06T07:50:33;97851.53;;;17.26;26.22
76052;BME280;64751;48.708;9.710;2023-04-06T07:53:00;97859.78;;;17.73;25.37
76052;BME280;64751;48.708;9.710;2023-04-06T07:55:29;97849.50;;;17.32;24.95
76052;BME280;64751;48.708;9.710;2023-04-06T07:57:58;97861.19;;;17.62;23.70
76052;BME280;64751;48.708;9.710;2023-04-06T08:00:26;97855.06;;;17.70;24.59
76052;BME280;64751;48.708;9.710;2023-04-06T08:02:53;97844.03;;;17.46;23.56
76052;BME280;64751;48.708;9.710;2023-04-06T08:05:21;97855.69;;;16.93;24.43
76052;BME280;64751;48.708;9.710;2023-04-06T08:07:49;97856.09;;;16.78;25.31
76052;BME280;64751;48.708;9.710;2023-04-06T08:10:17;97850.19;;;15.62;27.62
76052;BME280;64751;48.708;9.710;2023-04-06T08:12:44;97853.75;;;15.57;26.98
76052;BME280;64751;48.708;9.710;2023-04-06T08:15:13;97847.81;;;15.60;27.45
76052;BME280;64751;48.708;9.710;2023-04-06T08:17:41;97844.59;;;15.50;27.15
76052;BME280;64751;48.708;9.710;2023-04-06T08:20:10;97846.13;;;14.74;28.20
76052;BME280;64751;48.708;9.710;2023-04-06T08:22:37;97847.91;;;13.68;30.41
76052;BME280;64751;48.708;9.710;2023-04-06T08:25:06;97844.56;;;12.78;31.84
76052;BME280;64751;48.708;9.710;2023-04-06T08:27:33;97848.25;;;12.30;31.96
76052;BME280;64751;48.708;9.710;2023-04-06T08:30:03;97840.72;;;11.80;32.16
76052;BME280;64751;48.708;9.710;2023-04-06T08:32:32;97842.97;;;11.57;33.04
76052;BME280;64751;48.708;9.710;2023-04-06T08:35:00;97836.25;;;11.36;36.33
76052;BME280;64751;48.708;9.710;2023-04-06T08:37:28;97824.22;;;11.05;33.62
76052;BME280;64751;48.708;9.710;2023-04-06T08:39:57;97836.97;;;10.98;33.86
76052;BME280;64751;48.708;9.710;2023-04-06T08:42:25;97836.69;;;10.94;35.22
76052;BME280;64751;48.708;9.710;2023-04-06T08:44:53;97841.47;;;10.87;33.26
76052;BME280;64751;48.708;9.710;2023-04-06T08:47:22;97836.53;;;10.66;34.71
76052;BME280;64751;48.708;9.710;2023-04-06T08:49:51;97833.38;;;10.59;34.86
76052;BME280;64751;48.708;9.710;2023-04-06T08:52:20;97830.75;;;10.59;34.21
76052;BME280;64751;48.708;9.710;2023-04-06T08:54:47;97830.22;;;10.62;36.04
76052;BME280;64751;48.708;9.710;2023-04-06T08:57:15;97827.56;;;10.67;37.01
76052;BME280;64751;48.708;9.710;2023-04-06T08:59:44;97823.44;;;10.26;35.16
76052;BME280;64751;48.708;9.710;2023-04-06T09:02:16;97819.19;;;10.35;37.42
76052;BME280;64751;48.708;9.710;2023-04-06T09:04:45;97816.53;;;10.45;35.62
76052;BME280;64751;48.708;9.710;2023-04-06T09:07:16;97819.19;;;10.40;37.34
76052;BME280;64751;48.708;9.710;2023-04-06T09:09:44;97826.31;;;10.39;36.99
76052;BME280;64751;48.708;9.710;2023-04-06T09:12:25;97829.25;;;10.28;37.32
76052;BME280;64751;48.708;9.710;2023-04-06T09:14:52;97823.69;;;10.29;36.95
76052;BME280;64751;48.708;9.710;2023-04-06T09:17:22;97824.25;;;10.21;35.38
76052;BME280;64751;48.708;9.710;2023-04-06T09:19:50;97820.00;;;10.20;35.24
76052;BME280;64751;48.708;9.710;2023-04-06T09:22:19;97816.03;;;10.02;35.14
76052;BME280;64751;48.708;9.710;2023-04-06T09:24:49;97822.91;;;10.13;37.59
76052;BME280;64751;48.708;9.710;2023-04-06T09:27:17;97821.06;;;10.24;37.41
76052;BME280;64751;48.708;9.710;2023-04-06T09:29:45;97809.97;;;10.32;35.46
76052;BME280;64751;48.708;9.710;2023-04-06T09:32:13;97809.44;;;10.35;35.13
76052;BME280;64751;48.708;9.710;2023-04-06T09:34:44;97811.78;;;10.42;33.75
76052;BME280;64751;48.708;9.710;2023-04-06T09:37:15;97809.41;;;10.45;33.84
76052;BME280;64751;48.708;9.710;2023-04-06T09:39:46;97792.81;;;10.35;35.07
76052;BME280;64751;48.708;9.710;2023-04-06T09:42:23;97796.19;;;10.45;36.33
76052;BME280;64751;48.708;9.710;2023-04-06T09:44:51;97801.75;;;10.49;35.24
76052;BME280;64751;48.708;9.710;2023-04-06T09:47:19;97798.84;;;10.45;35.21
76052;BME280;64751;48.708;9.710;2023-04-06T09:49:50;97793.31;;;10.42;33.40
76052;BME280;64751;48.708;9.710;2023-04-06T09:52:20;97792.25;;;10.43;35.36
76052;BME280;64751;48.708;9.710;2023-04-06T09:54:51;97798.34;;;10.33;32.61
76052;BME280;64751;48.708;9.710;2023-04-06T09:57:25;97791.78;;;10.26;32.61
76052;BME280;64751;48.708;9.710;2023-04-06T10:00:00;97800.22;;;10.23;33.77
76052;BME280;64751;48.708;9.710;2023-04-06T10:02:40;97795.22;;;10.26;35.39
76052;BME280;64751;48.708;9.710;2023-04-06T10:05:12;97793.31;;;10.32;34.45
76052;BME280;64751;48.708;9.710;2023-04-06T10:07:44;97785.44;;;10.27;34.39
76052;BME280;64751;48.708;9.710;2023-04-06T10:10:14;97783.84;;;10.26;34.64
76052;BME280;64751;48.708;9.710;2023-04-06T10:12:43;97785.69;;;10.20;33.10
76052;BME280;64751;48.708;9.710;2023-04-06T10:15:11;97779.38;;;10.26;35.42
76052;BME280;64751;48.708;9.710;2023-04-06T10:17:39;97775.38;;;10.34;34.17
76052;BME280;64751;48.708;9.710;2023-04-06T10:20:10;97783.84;;;10.31;34.10
76052;BME280;64751;48.708;9.710;2023-04-06T10:22:43;97775.41;;;10.08;34.57
76052;BME280;64751;48.708;9.710;2023-04-06T10:25:26;97770.91;;;10.09;35.02
76052;BME280;64751;48.708;9.710;2023-04-06T10:27:59;97769.88;;;10.10;34.02
76052;BME280;64751;48.708;9.710;2023-04-06T10:30:28;97771.19;;;10.07;34.35
76052;BME280;64751;48.708;9.710;2023-04-06T10:32:55;97776.97;;;10.09;35.65
76052;BME280;64751;48.708;9.710;2023-04-06T10:35:23;97781.22;;;10.05;33.16
76052;BME280;64751;48.708;9.710;2023-04-06T10:37:54;97781.75;;;10.07;36.67
76052;BME280;64751;48.708;9.710;2023-04-06T10:40:29;97779.09;;;10.07;35.37
76052;BME280;64751;48.708;9.710;2023-04-06T10:43:07;97774.34;;;10.09;36.14
76052;BME280;64751;48.708;9.710;2023-04-06T10:45:35;97768.56;;;10.07;35.71
76052;BME280;64751;48.708;9.710;2023-04-06T10:48:12;97774.91;;;10.06;35.22
76052;BME280;64751;48.708;9.710;2023-04-06T10:50:41;97775.66;;;10.07;35.25
76052;BME280;64751;48.708;9.710;2023-04-06T10:53:09;97767.00;;;10.01;34.08
76052;BME280;64751;48.708;9.710;2023-04-06T10:55:39;97769.34;;;10.03;36.20
76052;BME280;64751;48.708;9.710;2023-04-06T10:58:08;97767.22;;;10.05;35.50
76052;BME280;64751;48.708;9.710;2023-04-06T11:00:43;97765.91;;;10.07;35.77
76052;BME280;64751;48.708;9.710;2023-04-06T11:03:11;97765.91;;;10.07;35.15
76052;BME280;64751;48.708;9.710;2023-04-06T11:05:43;97760.91;;;10.11;35.49
76052;BME280;64751;48.708;9.710;2023-04-06T11:08:22;97766.19;;;10.11;36.71
76052;BME280;64751;48.708;9.710;2023-04-06T11:10:51;97759.84;;;10.07;35.42
76052;BME280;64751;48.708;9.710;2023-04-06T11:13:19;97759.59;;;10.03;36.92
76052;BME280;64751;48.708;9.710;2023-04-06T11:15:46;97754.03;;;10.00;35.39
76052;BME280;64751;48.708;9.710;2023-04-06T11:18:17;97751.69;;;9.98;36.52
76052;BME280;64751;48.708;9.710;2023-04-06T11:20:47;97754.03;;;10.00;35.18
76052;BME280;64751;48.708;9.710;2023-04-06T11:23:22;97754.03;;;10.00;35.40
76052;BME280;64751;48.708;9.710;2023-04-06T11:25:52;97749.84;;;9.99;36.78
76052;BME280;64751;48.708;9.710;2023-04-06T11:28:20;97742.69;;;10.04;36.51
76052;BME280;64751;48.708;9.710;2023-04-06T11:30:48;97736.59;;;10.09;34.31
76052;BME280;64751;48.708;9.710;2023-04-06T11:33:20;97753.25;;;10.09;36.72
76052;BME280;64751;48.708;9.710;2023-04-06T11:35:48;97741.41;;;10.12;35.56
76052;BME280;64751;48.708;9.710;2023-04-06T11:38:18;97740.06;;;10.14;34.31
76052;BME280;64751;48.708;9.710;2023-04-06T11:40:45;97726.59;;;10.16;34.66
76052;BME280;64751;48.708;9.710;2023-04-06T11:43:14;97728.13;;;10.32;39.89
76052;BME280;64751;48.708;9.710;2023-04-06T11:45:43;97728.63;;;10.39;38.14
76052;BME280;64751;48.708;9.710;2023-04-06T11:48:18;97722.03;;;10.42;36.13
76052;BME280;64751;48.708;9.710;2023-04-06T11:50:47;97724.16;;;10.40;32.81
76052;BME280;64751;48.708;9.710;2023-04-06T11:53:15;97726.03;;;10.29;33.04
76052;BME280;64751;48.708;9.710;2023-04-06T11:55:42;97712.59;;;10.26;31.52
76052;BME280;64751;48.708;9.710;2023-04-06T11:58:15;97712.53;;;10.41;32.50
76052;BME280;64751;48.708;9.710;2023-04-06T12:00:43;97719.34;;;10.52;36.02
76052;BME280;64751;48.708;9.710;2023-04-06T12:03:12;97713.75;;;10.58;35.03
76052;BME280;64751;48.708;9.710;2023-04-06T12:05:40;97707.16;;;10.56;33.92
76052;BME280;64751;48.708;9.710;2023-04-06T12:08:08;97707.75;;;10.48;32.20
76052;BME280;64751;48.708;9.710;2023-04-06T12:10:35;97702.53;;;10.38;31.36
76052;BME280;64751;48.708;9.710;2023-04-06T12:13:04;97703.81;;;10.40;33.54
76052;BME280;64751;48.708;9.710;2023-04-06T12:15:33;97705.09;;;10.48;33.03
76052;BME280;64751;48.708;9.710;2023-04-06T12:18:00;97708.19;;;10.65;35.52
76052;BME280;64751;48.708;9.710;2023-04-06T12:20:28;97708.97;;;10.65;33.14
76052;BME280;64751;48.708;9.710;2023-04-06T12:22:56;97702.66;;;10.61;31.93
76052;BME280;64751;48.708;9.710;2023-04-06T12:25:24;97699.78;;;10.58;32.91
76052;BME280;64751;48.708;9.710;2023-04-06T12:27:51;97694.75;;;10.56;33.08
76052;BME280;64751;48.708;9.710;2023-04-06T12:30:19;97696.88;;;10.59;34.75
76052;BME280;64751;48.708;9.710;2023-04-06T12:32:48;97696.34;;;10.57;34.79
76052;BME280;64751;48.708;9.710;2023-04-06T12:35:17;97688.94;;;10.59;35.82
76052;BME280;64751;48.708;9.710;2023-04-06T12:37:45;97687.31;;;10.68;34.96
76052;BME280;64751;48.708;9.710;2023-04-06T12:40:13;97687.63;;;10.62;33.59
76052;BME280;64751;48.708;9.710;2023-04-06T12:42:41;97678.34;;;10.64;35.63
76052;BME280;64751;48.708;9.710;2023-04-06T12:45:09;97680.19;;;10.69;34.64
76052;BME280;64751;48.708;9.710;2023-04-06T12:47:37;97683.31;;;10.76;36.00
76052;BME280;64751;48.708;9.710;2023-04-06T12:50:07;97683.66;;;10.59;33.38
76052;BME280;64751;48.708;9.710;2023-04-06T12:52:35;97685.53;;;10.54;34.81
76052;BME280;64751;48.708;9.710;2023-04-06T12:55:03;97674.66;;;10.60;35.19
76052;BME280;64751;48.708;9.710;2023-04-06T12:57:32;97680.47;;;10.62;35.24
76052;BME280;64751;48.708;9.710;2023-04-06T13:00:00;97672.81;;;10.61;33.12
76052;BME280;64751;48.708;9.710;2023-04-06T13:02:27;97681.53;;;10.61;36.39
76052;BME280;64751;48.708;9.710;2023-04-06T13:04:55;97681.81;;;10.60;34.70
76052;BME280;64751;48.708;9.710;2023-04-06T13:07:25;97671.56;;;10.53;34.49
76052;BME280;64751;48.708;9.710;2023-04-06T13:09:53;97664.69;;;10.47;34.81
76052;BME280;64751;48.708;9.710;2023-04-06T13:12:20;97666.00;;;10.50;35.99
76052;BME280;64751;48.708;9.710;2023-04-06T13:14:48;97661.00;;;10.53;35.45
76052;BME280;64751;48.708;9.710;2023-04-06T13:17:18;97666.00;;;10.55;36.25